Time;durP1;ratioP1;P1;durP2;ratioP2;P2;SDS_P1;SDS_P2;PMS_P1;PMS_P2;Temp;Humidity;BMP_temperature;BMP_pressure;BME280_temperature;BME280_humidity;BME280_pressure;Samples;Min_cycle;Max_cycle;Signal;HPM_P1;HPM_P2
2023/10/11 00:02:51;;;;;;;8.00;3.10;;;;;;;17.79;45.87;100456.88;5053067;28;20068;-40
2023/10/11 00:05:19;;;;;;;4.90;3.05;;;;;;;17.95;45.26;100461.63;5052863;28;20044;-39
2023/10/11 00:07:44;;;;;;;5.03;3.00;;;;;;;18.06;44.51;100459.13;5053091;28;20036;-39
2023/10/11 00:10:19;;;;;;;6.43;2.85;;;;;;;17.79;44.91;100454.19;5052797;28;20025;-39
2023/10/11 00:12:44;;;;;;;5.85;2.85;;;;;;;17.59;46.53;100449.13;5052889;28;20028;-38
2023/10/11 00:15:10;;;;;;;5.90;2.65;;;;;;;18.00;45.37;100457.38;5052717;28;20017;-38
2023/10/11 00:17:39;;;;;;;5.43;2.75;;;;;;;18.04;44.74;100461.25;5052615;28;20028;-39
2023/10/11 00:20:17;;;;;;;9.10;2.83;;;;;;;17.73;45.11;100457.81;5052682;28;20024;-38
2023/10/11 00:22:42;;;;;;;8.98;2.90;;;;;;;18.14;44.71;100453.38;5053204;28;20128;-39
2023/10/11 00:25:09;;;;;;;6.05;2.80;;;;;;;18.31;44.14;100453.47;5053132;28;20129;-39
2023/10/11 00:27:36;;;;;;;7.55;2.80;;;;;;;17.82;45.33;100455.59;5053020;28;20029;-39
2023/10/11 00:30:02;;;;;;;3.75;2.30;;;;;;;17.93;46.03;100449.41;5053499;28;20033;-39
2023/10/11 00:32:27;;;;;;;5.18;2.53;;;;;;;17.96;45.51;100462.41;5052810;28;20145;-37
2023/10/11 00:34:54;;;;;;;5.97;2.47;;;;;;;17.95;44.54;100441.91;5052832;28;20115;-38
2023/10/11 00:37:20;;;;;;;5.72;2.42;;;;;;;17.57;45.64;100462.84;5052931;28;20119;-39
2023/10/11 00:39:45;;;;;;;3.75;2.55;;;;;;;17.22;46.16;100457.38;5052829;28;20060;-39
2023/10/11 00:42:11;;;;;;;3.58;2.10;;;;;;;17.63;45.65;100455.72;5052682;28;20036;-39
2023/10/11 00:44:36;;;;;;;5.65;1.90;;;;;;;17.93;44.42;100452.09;5052728;28;20029;-39
2023/10/11 00:47:06;;;;;;;4.60;2.17;;;;;;;17.79;45.25;100457.69;5053184;28;20429;-38
2023/10/11 00:49:36;;;;;;;2.85;1.77;;;;;;;17.67;45.42;100459.56;5052741;28;20124;-39
2023/10/11 00:52:06;;;;;;;5.47;1.90;;;;;;;17.96;45.11;100465.94;5053011;28;20029;-39
2023/10/11 00:54:33;;;;;;;2.50;1.95;;;;;;;17.99;44.52;100464.63;5052544;28;20071;-38
2023/10/11 00:57:00;;;;;;;2.42;1.90;;;;;;;17.99;44.28;100470.00;5052614;28;20536;-38
2023/10/11 00:59:27;;;;;;;5.35;1.98;;;;;;;18.13;44.17;100476.81;5052529;28;20028;-39
2023/10/11 01:01:55;;;;;;;4.90;2.17;;;;;;;18.13;44.16;100479.50;5052046;28;20032;-39
2023/10/11 01:04:21;;;;;;;4.13;1.90;;;;;;;17.72;44.87;100475.81;5052232;28;20107;-39
2023/10/11 01:06:49;;;;;;;4.75;1.80;;;;;;;18.04;44.30;100480.91;5052435;28;20095;-39
2023/10/11 01:09:17;;;;;;;4.22;1.80;;;;;;;18.20;43.80;100489.31;5052289;28;20049;-38
2023/10/11 01:11:43;;;;;;;4.47;1.70;;;;;;;18.20;43.90;100490.16;5052540;28;20494;-38
2023/10/11 01:14:11;;;;;;;3.53;1.80;;;;;;;18.34;43.50;100486.16;5052065;28;20021;-38
2023/10/11 01:16:37;;;;;;;2.67;1.80;;;;;;;18.27;43.54;100488.16;5052045;28;20063;-40
2023/10/11 01:19:07;;;;;;;6.75;1.75;;;;;;;18.22;43.59;100492.59;5052307;28;20024;-39
2023/10/11 01:21:34;;;;;;;7.07;1.88;;;;;;;17.83;43.86;100503.81;5051767;28;20543;-39
2023/10/11 01:23:59;;;;;;;4.10;1.80;;;;;;;17.97;43.46;100501.75;5052210;28;20099;-38
2023/10/11 01:26:27;;;;;;;4.38;1.80;;;;;;;18.29;43.40;100504.06;5051804;28;20123;-39
2023/10/11 01:28:56;;;;;;;2.72;1.75;;;;;;;18.36;42.81;100508.28;5051674;28;20059;-38
2023/10/11 01:31:21;;;;;;;6.33;1.83;;;;;;;18.57;43.03;100519.50;5051892;28;20078;-39
2023/10/11 01:33:49;;;;;;;8.30;1.80;;;;;;;18.58;43.03;100515.75;5051877;28;20040;-39
2023/10/11 01:36:17;;;;;;;4.50;1.50;;;;;;;18.51;42.50;100526.66;5050089;28;20029;-39
2023/10/11 01:38:49;;;;;;;3.47;1.70;;;;;;;18.56;42.00;100512.47;5051929;28;20094;-40
2023/10/11 01:41:27;;;;;;;3.80;1.65;;;;;;;18.70;41.61;100527.31;5052016;28;20020;-39
2023/10/11 01:43:54;;;;;;;3.65;1.77;;;;;;;18.20;44.11;100524.34;5051704;28;20025;-39
2023/10/11 01:46:27;;;;;;;4.55;1.90;;;;;;;18.39;42.26;100530.41;5051846;28;20477;-39
2023/10/11 01:48:54;;;;;;;6.28;1.65;;;;;;;18.54;42.46;100525.34;5051260;28;20428;-40
2023/10/11 01:51:26;;;;;;;4.63;1.80;;;;;;;18.62;42.15;100532.25;5051901;28;20029;-39
2023/10/11 01:53:55;;;;;;;4.03;1.80;;;;;;;18.52;42.33;100522.94;5050465;28;20028;-38
2023/10/11 01:56:24;;;;;;;;;;;;;;;18.84;41.92;100536.00;5051534;28;20381;-39
2023/10/11 01:58:56;;;;;;;6.93;1.70;;;;;;;18.29;42.31;100539.91;5051449;28;19966;-38
2023/10/11 02:01:30;;;;;;;3.85;1.80;;;;;;;18.36;42.12;100532.53;5051355;28;20045;-41
2023/10/11 02:04:00;;;;;;;2.72;1.50;;;;;;;18.04;42.60;100531.25;5051394;28;20024;-39
2023/10/11 02:06:31;;;;;;;3.35;1.60;;;;;;;17.62;43.63;100545.56;5051463;28;20021;-39
2023/10/11 02:08:58;;;;;;;6.80;2.28;;;;;;;17.88;43.67;100540.84;5051121;28;20063;-39
2023/10/11 02:11:25;;;;;;;2.95;1.48;;;;;;;18.12;42.85;100552.44;5051045;28;20040;-40
2023/10/11 02:13:52;;;;;;;5.15;1.63;;;;;;;17.99;43.17;100553.47;5051664;28;20059;-39
2023/10/11 02:16:18;;;;;;;4.45;1.50;;;;;;;18.21;42.77;100564.53;5051137;28;20051;-39
2023/10/11 02:18:44;;;;;;;5.15;1.60;;;;;;;18.29;42.36;100566.84;5046049;28;20417;-38
2023/10/11 02:21:09;;;;;;;4.05;1.63;;;;;;;18.17;42.78;100566.03;5050906;28;20025;-39
2023/10/11 02:23:39;;;;;;;3.00;1.60;;;;;;;18.48;41.48;100574.81;5051293;28;20024;-38
2023/10/11 02:26:12;;;;;;;5.85;1.50;;;;;;;18.65;41.35;100580.31;5051018;28;20048;-38
2023/10/11 02:28:42;;;;;;;3.08;1.67;;;;;;;18.56;40.67;100580.69;5042261;28;20032;-38
2023/10/11 02:31:08;;;;;;;;;;;;;;;18.69;40.58;100584.16;5031595;28;20049;-38
2023/10/11 02:33:33;;;;;;;3.65;1.67;;;;;;;18.46;41.04;100587.72;5038313;28;19913;-38
2023/10/11 02:36:09;;;;;;;6.55;1.45;;;;;;;18.40;41.49;100591.34;5050869;28;20400;-38
2023/10/11 02:38:50;;;;;;;5.13;1.77;;;;;;;18.63;41.02;100590.50;5050386;28;20045;-39
2023/10/11 02:41:20;;;;;;;5.80;1.70;;;;;;;18.87;50.63;100602.13;5051019;28;20090;-41
2023/10/11 02:43:49;;;;;;;4.07;1.60;;;;;;;19.06;40.75;100592.81;5050863;28;20040;-38
2023/10/11 02:46:18;;;;;;;5.45;1.88;;;;;;;18.92;40.01;100594.97;5051214;28;20025;-38
2023/10/11 02:48:48;;;;;;;5.75;1.55;;;;;;;18.66;40.25;100592.75;5050664;28;20029;-39
2023/10/11 02:51:16;;;;;;;4.50;1.70;;;;;;;18.32;40.46;100597.91;5051087;28;20041;-39
2023/10/11 02:53:43;;;;;;;3.53;1.80;;;;;;;18.21;40.76;100594.16;5051123;28;20108;-39
2023/10/11 02:56:10;;;;;;;5.03;1.90;;;;;;;18.03;41.33;100602.31;5050510;28;20039;-40
2023/10/11 02:58:39;;;;;;;6.20;1.88;;;;;;;17.70;41.98;100603.63;5050799;28;20053;-38
2023/10/11 03:01:14;;;;;;;5.18;2.10;;;;;;;17.85;41.84;100601.34;5050578;28;20103;-36
2023/10/11 03:03:40;;;;;;;5.85;2.00;;;;;;;17.98;41.75;100597.63;5051128;28;20119;-40
2023/10/11 03:06:07;;;;;;;13.70;2.30;;;;;;;17.94;41.63;100601.84;5054714;28;20047;-40
2023/10/11 03:08:33;;;;;;;6.55;1.88;;;;;;;18.22;41.11;100600.34;5054445;28;20064;-39
2023/10/11 03:10:59;;;;;;;4.38;2.08;;;;;;;18.08;41.16;100597.06;5054646;28;20051;-38
2023/10/11 03:13:41;;;;;;;2.70;1.80;;;;;;;17.82;41.59;100601.81;5054560;28;20025;-39
2023/10/11 03:16:11;;;;;;;7.13;1.52;;;;;;;17.77;41.54;100613.25;5054154;28;20031;-39
2023/10/11 03:18:39;;;;;;;;;;;;;;;17.89;41.36;100616.00;5054925;28;20025;-38
2023/10/11 03:21:19;;;;;;;3.00;1.65;;;;;;;17.77;41.55;100612.44;5054687;28;20004;-38
2023/10/11 03:23:54;;;;;;;3.45;1.83;;;;;;;17.84;41.15;100609.63;5054105;28;20033;-39
2023/10/11 03:26:23;;;;;;;3.83;1.70;;;;;;;18.02;40.59;100622.22;5053777;28;20032;-39
2023/10/11 03:28:57;;;;;;;5.28;2.00;;;;;;;17.95;41.55;100615.09;5053430;28;20021;-40
2023/10/11 03:31:41;;;;;;;3.75;1.90;;;;;;;17.73;41.31;100619.31;5051424;28;20025;-39
2023/10/11 03:34:14;;;;;;;4.13;1.50;;;;;;;17.57;41.34;100616.25;5065266;28;20094;-38
2023/10/11 03:36:51;;;;;;;3.22;1.60;;;;;;;17.55;41.25;100623.72;5032871;28;20124;-39
2023/10/11 03:39:56;;;;;;;2.78;1.90;;;;;;;17.76;41.31;100618.84;5033610;28;20064;-39
2023/10/11 03:42:17;;;;;;;3.17;1.70;;;;;;;17.54;41.15;100619.38;5032957;28;20048;-38
2023/10/11 03:44:46;;;;;;;3.13;1.70;;;;;;;17.44;41.01;100620.94;5033482;28;20033;-38
2023/10/11 03:47:16;;;;;;;4.97;1.90;;;;;;;17.41;41.15;100611.47;5050645;28;20025;-38
2023/10/11 03:52:43;;;;;;;5.75;1.88;;;;;;;17.68;41.31;100624.56;5052986;28;19967;-39
2023/10/11 03:55:12;;;;;;;4.55;1.80;;;;;;;17.75;40.72;100625.31;5048969;28;20047;-39
2023/10/11 03:57:41;;;;;;;5.32;1.50;;;;;;;17.38;41.05;100626.22;5050179;28;20028;-39
2023/10/11 04:00:26;;;;;;;2.53;1.40;;;;;;;17.20;41.90;100628.94;5051747;28;20071;-39
2023/10/11 04:03:01;;;;;;;3.92;1.80;;;;;;;17.29;41.12;100622.19;5052117;28;20056;-39
2023/10/11 04:05:39;;;;;;;4.78;1.70;;;;;;;17.37;40.90;100627.25;5052229;28;20032;-38
2023/10/11 04:08:05;;;;;;;7.88;2.13;;;;;;;17.51;41.08;100630.56;5051430;28;20079;-38
2023/10/11 04:10:39;;;;;;;4.03;2.33;;;;;;;17.49;41.48;100632.69;5053166;28;20518;-39
2023/10/11 04:13:14;;;;;;;7.03;2.00;;;;;;;17.43;41.52;100632.78;5053546;28;20063;-39
2023/10/11 04:15:40;;;;;;;4.53;1.73;;;;;;;17.38;41.19;100636.13;5033494;28;20026;-39
2023/10/11 04:18:20;;;;;;;5.18;2.08;;;;;;;17.53;40.55;100631.16;5034555;28;20026;-42
2023/10/11 04:20:59;;;;;;;7.20;1.83;;;;;;;17.32;41.28;100631.66;5037042;28;20121;-40
2023/10/11 04:23:27;;;;;;;6.78;2.00;;;;;;;17.07;41.13;100629.91;5053758;28;20025;-41
2023/10/11 04:25:55;;;;;;;5.35;1.92;;;;;;;17.03;41.21;100634.09;5052993;28;20484;-38
2023/10/11 04:28:23;;;;;;;4.70;1.73;;;;;;;17.04;42.03;100630.38;5052948;28;20025;-40
2023/10/11 04:30:53;;;;;;;4.72;2.00;;;;;;;17.06;42.45;100630.97;5051745;28;20064;-41
2023/10/11 04:33:21;;;;;;;7.13;1.90;;;;;;;17.15;41.56;100631.47;5052326;28;20040;-37
2023/10/11 04:35:55;;;;;;;7.43;1.85;;;;;;;17.30;41.50;100636.47;5053069;28;20059;-40
2023/10/11 04:38:21;;;;;;;7.85;1.80;;;;;;;17.41;41.32;100640.25;5052433;28;20124;-39
2023/10/11 04:40:51;;;;;;;4.80;1.85;;;;;;;17.45;41.27;100633.38;5051834;28;20107;-38
2023/10/11 04:43:29;;;;;;;6.35;2.13;;;;;;;17.65;40.74;100641.16;5051681;28;20029;-39
2023/10/11 04:46:00;;;;;;;6.78;2.15;;;;;;;17.74;40.63;100651.41;5049583;28;20435;-39
2023/10/11 04:48:33;;;;;;;4.93;1.63;;;;;;;17.81;40.40;100645.09;5048900;28;20511;-37
2023/10/11 04:53:54;;;;;;;5.82;2.65;;;;;;;17.95;40.49;100647.41;5048265;28;20029;-39
2023/10/11 04:59:12;;;;;;;8.82;1.83;;;;;;;17.87;39.98;100658.47;5048113;28;20515;-39
2023/10/11 05:04:16;;;;;;;5.07;1.67;;;;;;;17.35;40.78;100661.63;5048797;28;20074;-38
2023/10/11 05:06:43;;;;;;;5.07;2.20;;;;;;;17.73;41.00;100665.91;5049239;28;20031;-39
2023/10/11 05:11:44;;;;;;;4.32;1.90;;;;;;;17.54;41.11;100680.44;5051735;28;20028;-39
2023/10/11 05:14:26;;;;;;;8.95;2.20;;;;;;;17.64;40.61;100672.66;5051972;28;20037;-38
2023/10/11 05:16:58;;;;;;;5.68;2.00;;;;;;;17.72;40.24;100677.69;5051777;28;20031;-39
2023/10/11 05:19:25;;;;;;;3.35;1.83;;;;;;;17.98;40.03;100678.41;5048741;28;20477;-39
2023/10/11 05:21:53;;;;;;;8.00;2.30;;;;;;;18.14;39.67;100679.63;5048245;28;20075;-39
2023/10/11 05:27:04;;;;;;;5.97;1.92;;;;;;;18.29;39.35;100685.41;5047945;28;20127;-40
2023/10/11 05:29:36;;;;;;;5.55;2.00;;;;;;;18.28;39.42;100689.16;5031566;28;20041;-41
2023/10/11 05:32:20;;;;;;;8.15;2.08;;;;;;;18.43;39.03;100686.03;5044575;28;20029;-39
2023/10/11 05:34:50;;;;;;;8.82;2.20;;;;;;;18.25;39.63;100694.19;5043283;28;20021;-40
2023/10/11 05:50:56;;;;;;;8.52;1.90;;;;;;;18.47;39.33;100718.72;5051401;28;20024;-39
2023/10/11 05:53:24;;;;;;;6.15;2.05;;;;;;;18.59;39.07;100724.94;5051593;28;20029;-38
2023/10/11 05:55:51;;;;;;;4.20;2.13;;;;;;;18.62;39.10;100724.47;5051586;28;20025;-38
2023/10/11 05:58:18;;;;;;;5.32;2.05;;;;;;;18.76;38.77;100725.88;5051494;28;20040;-38
2023/10/11 06:00:49;;;;;;;5.63;1.85;;;;;;;18.60;39.11;100731.97;5051109;28;20083;-38
2023/10/11 06:03:15;;;;;;;7.68;2.10;;;;;;;18.57;39.41;100735.13;5051109;28;20036;-38
2023/10/11 06:05:41;;;;;;;3.72;1.90;;;;;;;18.49;39.22;100725.50;5050583;28;20021;-38
2023/10/11 06:08:07;;;;;;;4.47;1.98;;;;;;;18.36;39.99;100731.91;5050690;28;20078;-39
2023/10/11 06:10:41;;;;;;;6.30;1.88;;;;;;;18.48;38.68;100739.22;5051113;28;20017;-39
2023/10/11 06:13:16;;;;;;;2.53;1.40;;;;;;;17.44;39.51;100744.72;5049140;28;20020;-38
2023/10/11 06:16:00;;;;;;;3.30;1.63;;;;;;;17.55;39.87;100747.50;5048283;28;20503;-39
2023/10/11 06:21:24;;;;;;;6.75;1.77;;;;;;;18.46;38.28;100744.00;5049810;28;20087;-39
2023/10/11 06:23:51;;;;;;;2.35;1.38;;;;;;;19.02;37.22;100752.66;5049525;28;20377;-39
2023/10/11 06:26:52;;;;;;;3.38;1.80;;;;;;;18.28;38.09;100753.81;5051057;28;20099;-38
2023/10/11 06:29:17;;;;;;;5.82;1.52;;;;;;;18.42;37.59;100750.91;5044859;28;20024;-40
2023/10/11 06:31:43;;;;;;;5.57;1.50;;;;;;;18.76;37.63;100746.63;5050489;28;20536;-40
2023/10/11 06:34:45;;;;;;;5.78;1.80;;;;;;;18.59;37.64;100751.88;5051595;28;20064;-39
2023/10/11 06:37:02;;;;;;;2.97;1.60;;;;;;;19.25;36.91;100749.13;5049330;28;20041;-38
2023/10/11 06:42:12;;;;;;;5.32;1.67;;;;;;;19.69;36.45;100752.22;5050717;28;20513;-39
2023/10/11 06:44:47;;;;;;;8.32;1.70;;;;;;;19.61;36.58;100747.16;5050788;28;20025;-44
2023/10/11 06:47:16;;;;;;;5.40;1.60;;;;;;;19.67;36.00;100738.13;5048979;28;20024;-39
2023/10/11 06:49:47;;;;;;;5.30;1.90;;;;;;;19.99;36.06;100749.31;5050181;28;20028;-39
2023/10/11 06:52:17;;;;;;;4.53;1.75;;;;;;;19.99;35.65;100752.03;5048350;28;20504;-40
2023/10/11 06:54:47;;;;;;;3.72;1.90;;;;;;;19.71;35.82;100750.91;5049962;28;20025;-39
2023/10/11 06:57:19;;;;;;;2.60;1.70;;;;;;;19.43;37.01;100751.66;5050119;28;20061;-39
2023/10/11 06:59:49;;;;;;;5.85;1.70;;;;;;;19.45;36.48;100754.13;5050232;28;20022;-40
2023/10/11 07:02:18;;;;;;;4.72;1.85;;;;;;;19.49;36.24;100761.50;5050093;28;20021;-38
2023/10/11 07:04:52;;;;;;;5.18;2.00;;;;;;;19.03;37.14;100760.50;5049713;28;20029;-41
2023/10/11 07:07:18;;;;;;;8.30;2.30;;;;;;;19.18;37.28;100743.84;5049970;28;20226;-40
2023/10/11 07:09:56;;;;;;;4.90;1.73;;;;;;;19.33;37.42;100754.97;5050326;28;20104;-40
2023/10/11 07:12:39;;;;;;;3.80;2.00;;;;;;;19.08;37.91;100749.84;5050413;28;20029;-39
2023/10/11 07:15:07;;;;;;;4.60;1.90;;;;;;;18.65;38.26;100760.94;5049676;28;20028;-39
2023/10/11 07:17:33;;;;;;;5.40;1.90;;;;;;;18.89;37.95;100756.41;5050034;28;20137;-41
2023/10/11 07:19:58;;;;;;;4.60;2.25;;;;;;;19.41;37.50;100752.97;5050033;28;20020;-38
2023/10/11 07:22:27;;;;;;;4.15;2.00;;;;;;;19.30;37.43;100762.72;5049996;28;20021;-39
2023/10/11 07:24:56;;;;;;;7.10;2.45;;;;;;;19.52;36.78;100755.66;5050235;28;20398;-39
2023/10/11 07:27:37;;;;;;;;;;;;;;;19.81;36.45;100761.09;5050235;28;20495;-40
2023/10/11 07:30:15;;;;;;;5.00;2.42;;;;;;;19.84;36.62;100766.03;5049411;28;20356;-38
2023/10/11 07:32:42;;;;;;;5.80;2.15;;;;;;;19.94;36.44;100756.50;5048765;28;20488;-39
2023/10/11 07:35:17;;;;;;;5.75;2.38;;;;;;;20.23;35.88;100763.50;5049570;28;20400;-38
2023/10/11 07:37:43;;;;;;;7.45;2.20;;;;;;;19.93;36.88;100766.47;5049579;28;20145;-38
2023/10/11 07:40:12;;;;;;;7.93;2.28;;;;;;;20.18;36.75;100768.84;5047362;28;20072;-40
2023/10/11 07:42:38;;;;;;;7.72;2.05;;;;;;;20.13;36.72;100776.84;5049654;28;20028;-39
2023/10/11 07:45:12;;;;;;;5.82;2.50;;;;;;;19.22;38.34;100771.19;5050084;28;20401;-39
2023/10/11 07:47:45;;;;;;;11.43;2.63;;;;;;;19.30;37.88;100770.81;5049573;28;20079;-40
2023/10/11 07:50:14;;;;;;;6.47;2.55;;;;;;;20.15;36.70;100782.84;5051474;28;20215;-41
2023/10/11 07:52:41;;;;;;;8.10;2.42;;;;;;;20.34;36.68;100785.34;5063094;28;20052;-41
2023/10/11 07:55:08;;;;;;;5.53;2.80;;;;;;;20.61;36.15;100782.84;5061107;28;20021;-39
2023/10/11 07:57:39;;;;;;;8.07;2.45;;;;;;;20.84;35.44;100771.88;5059841;28;20108;-39
2023/10/11 08:00:16;;;;;;;6.03;2.55;;;;;;;21.18;35.82;100782.66;5053063;28;20028;-41
2023/10/11 08:02:42;;;;;;;6.45;2.72;;;;;;;21.52;35.34;100777.19;5051522;28;20051;-42
2023/10/11 08:05:12;;;;;;;4.80;2.50;;;;;;;22.09;34.13;100769.75;5052383;28;20036;-41
2023/10/11 08:07:40;;;;;;;5.97;2.20;;;;;;;22.01;34.31;100790.78;5051852;28;20017;-39
2023/10/11 08:12:50;;;;;;;5.25;2.28;;;;;;;22.59;33.39;100785.69;5056860;28;20094;-39
2023/10/11 08:15:21;;;;;;;4.75;2.58;;;;;;;22.56;34.19;100788.94;5050120;28;20029;-42
2023/10/11 08:17:46;;;;;;;4.72;1.90;;;;;;;22.53;33.33;100789.44;5051210;28;20396;-41
2023/10/11 08:20:15;;;;;;;6.25;2.13;;;;;;;22.00;34.52;100793.75;5051829;28;20033;-38
2023/10/11 08:22:41;;;;;;;5.40;1.90;;;;;;;20.77;36.68;100787.47;5051853;28;20036;-38
2023/10/11 08:25:12;;;;;;;3.92;1.73;;;;;;;21.72;35.40;100782.03;5057477;28;20055;-37
2023/10/11 08:27:38;;;;;;;4.57;2.10;;;;;;;21.29;35.99;100789.84;5056805;28;20072;-39
2023/10/11 08:32:37;;;;;;;3.55;2.28;;;;;;;22.00;35.26;100782.91;5052344;28;20458;-38
2023/10/11 08:35:05;;;;;;;6.70;1.77;;;;;;;22.56;33.67;100785.38;5052432;28;20037;-39
2023/10/11 08:37:31;;;;;;;4.35;2.28;;;;;;;23.16;33.04;100778.00;5051697;28;20048;-40
2023/10/11 08:39:57;;;;;;;6.85;2.13;;;;;;;23.78;32.31;100784.53;5052790;28;20438;-40
2023/10/11 08:42:30;;;;;;;4.55;1.80;;;;;;;23.35;32.81;100792.75;5050747;28;20104;-38
2023/10/11 08:45:00;;;;;;;3.50;1.85;;;;;;;22.03;34.79;100794.06;5052224;28;20096;-41
2023/10/11 08:47:29;;;;;;;4.57;1.98;;;;;;;22.74;33.31;100787.72;5052069;28;20025;-39
2023/10/11 08:49:55;;;;;;;;;;;;;;;23.02;33.59;100788.47;5053022;28;20036;-39
2023/10/11 08:52:29;;;;;;;4.82;1.90;;;;;;;22.95;33.33;100785.16;5052322;28;19908;-38
2023/10/11 08:54:54;;;;;;;4.00;2.20;;;;;;;22.39;34.37;100793.63;5052426;28;20025;-39
2023/10/11 08:57:23;;;;;;;4.85;1.90;;;;;;;22.90;33.86;100791.34;5052238;28;20441;-39
2023/10/11 08:59:58;;;;;;;2.95;2.20;;;;;;;23.53;32.42;100793.38;5051936;28;20071;-40
2023/10/11 09:02:29;;;;;;;3.03;2.03;;;;;;;23.16;33.07;100789.66;5051872;28;20091;-40
2023/10/11 09:04:59;;;;;;;5.63;2.03;;;;;;;22.97;33.28;100786.50;5047359;28;20404;-41
2023/10/11 09:07:45;;;;;;;4.68;2.30;;;;;;;23.17;32.83;100780.44;5051992;28;20033;-41
2023/10/11 09:10:27;;;;;;;7.15;2.30;;;;;;;23.02;33.85;100785.75;5051835;28;20067;-39
2023/10/11 09:12:58;;;;;;;7.18;2.67;;;;;;;22.69;34.09;100793.09;5052059;28;20107;-41
2023/10/11 09:15:42;;;;;;;6.13;2.90;;;;;;;21.79;35.83;100781.84;5051916;28;20108;-39
2023/10/11 09:18:15;;;;;;;7.25;2.65;;;;;;;22.00;35.65;100793.75;5051798;28;20027;-39
2023/10/11 09:20:42;;;;;;;5.45;2.78;;;;;;;22.32;34.87;100801.97;5052324;28;20048;-42
2023/10/11 09:23:11;;;;;;;5.97;2.60;;;;;;;22.43;34.95;100800.19;5051779;28;20094;-39
2023/10/11 09:25:59;;;;;;;6.45;2.63;;;;;;;22.83;34.79;100796.19;5051569;28;20021;-40
2023/10/11 09:28:28;;;;;;;9.05;3.05;;;;;;;22.63;34.94;100799.53;5055380;28;20486;-42
2023/10/11 09:31:14;;;;;;;4.60;2.40;;;;;;;22.47;35.73;100797.78;5071689;28;20040;-39
2023/10/11 09:33:48;;;;;;;6.43;2.70;;;;;;;22.84;34.48;100795.09;5054894;28;20041;-38
2023/10/11 09:36:17;;;;;;;4.70;2.50;;;;;;;22.98;34.73;100781.91;5041693;28;20384;-41
2023/10/11 09:38:43;;;;;;;10.38;3.63;;;;;;;23.01;35.50;100784.91;5051138;28;20033;-43
2023/10/11 09:41:09;;;;;;;7.40;3.25;;;;;;;23.29;34.17;100782.94;5051781;28;20350;-39
2023/10/11 09:43:45;;;;;;;6.38;2.70;;;;;;;23.37;33.35;100790.59;5049040;28;20100;-41
2023/10/11 09:46:12;;;;;;;12.13;7.50;;;;;;;22.86;35.55;100789.41;5049383;28;20103;-39
2023/10/11 09:48:41;;;;;;;11.55;6.95;;;;;;;22.55;36.61;100783.75;5048849;28;20025;-42
2023/10/11 09:51:13;;;;;;;12.25;4.00;;;;;;;22.75;36.03;100788.50;5051182;28;20384;-40
2023/10/11 09:53:42;;;;;;;5.82;2.83;;;;;;;22.90;35.38;100785.91;5048477;28;20380;-40
2023/10/11 09:56:29;;;;;;;7.97;3.00;;;;;;;23.27;35.06;100779.69;5051421;28;20025;-44
2023/10/11 09:59:22;;;;;;;5.93;2.40;;;;;;;23.14;34.30;100777.44;5049724;28;20468;-40
2023/10/11 10:01:55;;;;;;;4.22;3.08;;;;;;;22.71;35.87;100763.78;5049239;28;20025;-40
2023/10/11 10:04:52;;;;;;;4.20;2.75;;;;;;;22.91;35.39;100755.00;5046785;28;20064;-42
2023/10/11 10:07:26;;;;;;;7.47;2.80;;;;;;;23.06;35.52;100765.19;5047004;28;20021;-41
2023/10/11 10:10:02;;;;;;;5.15;3.10;;;;;;;22.74;35.89;100770.63;5050638;28;20021;-41
2023/10/11 10:12:42;;;;;;;11.25;3.60;;;;;;;22.62;36.63;100759.94;5047407;28;20017;-40
2023/10/11 10:15:13;;;;;;;8.13;4.10;;;;;;;22.85;35.93;100750.63;5048467;28;20020;-40
2023/10/11 10:18:00;;;;;;;8.48;2.85;;;;;;;22.74;36.41;100740.78;5050903;28;20106;-41
2023/10/11 10:20:38;;;;;;;9.65;2.92;;;;;;;23.33;35.45;100742.50;5050505;28;20080;-39
2023/10/11 10:23:22;;;;;;;7.05;3.00;;;;;;;23.66;34.77;100735.84;5044659;28;20412;-40
2023/10/11 10:25:50;;;;;;;4.50;3.30;;;;;;;22.67;36.83;100735.56;5050382;28;20055;-38
2023/10/11 10:28:41;;;;;;;9.75;5.90;;;;;;;22.50;37.17;100732.97;5046531;28;20025;-39
2023/10/11 10:31:16;;;;;;;13.77;9.55;;;;;;;22.88;36.16;100741.94;5038489;28;20114;-40
2023/10/11 10:33:52;;;;;;;10.70;7.15;;;;;;;23.35;35.89;100730.28;5047916;28;20035;-42
2023/10/11 10:36:18;;;;;;;5.75;3.90;;;;;;;23.66;35.24;100727.69;5050055;28;20550;-40
2023/10/11 10:41:36;;;;;;;4.82;2.90;;;;;;;22.74;37.24;100725.31;5050142;28;20041;-42
2023/10/11 10:44:16;;;;;;;5.30;2.72;;;;;;;22.41;36.97;100726.41;5050286;28;20060;-40
2023/10/11 10:46:59;;;;;;;;;;;;;;;22.79;37.09;100721.78;5049323;28;20035;-41
2023/10/11 10:49:47;;;;;;;7.07;2.80;;;;;;;23.75;35.33;100717.94;5048863;28;19983;-39
2023/10/11 10:52:20;;;;;;;6.93;2.95;;;;;;;24.57;34.22;100709.91;5049006;28;20025;-39
2023/10/11 10:55:01;;;;;;;5.20;3.50;;;;;;;24.86;33.88;100695.72;5041593;28;20400;-37
2023/10/11 10:57:27;;;;;;;9.48;4.25;;;;;;;25.46;32.45;100693.09;5030089;28;20032;-39
2023/10/11 10:59:54;;;;;;;7.18;3.50;;;;;;;24.69;33.03;100690.56;5032621;28;20029;-39
2023/10/11 11:02:19;;;;;;;5.97;4.00;;;;;;;24.87;32.76;100689.19;5030245;28;20562;-39
2023/10/11 11:04:45;;;;;;;5.85;4.47;;;;;;;24.77;33.28;100690.03;5030333;28;20096;-39
2023/10/11 11:07:22;;;;;;;8.48;5.38;;;;;;;23.99;34.21;100674.81;5031563;28;20025;-40
2023/10/11 11:09:48;;;;;;;11.57;5.53;;;;;;;24.24;34.04;100677.78;5047669;28;20029;-40
2023/10/11 11:12:17;;;;;;;10.73;6.70;;;;;;;24.06;34.23;100677.25;5048865;28;20020;-40
2023/10/11 11:14:56;;;;;;;8.85;6.65;;;;;;;24.67;33.17;100665.53;5048940;28;20013;-40
2023/10/11 11:17:23;;;;;;;11.68;8.82;;;;;;;24.98;32.56;100671.75;5049157;28;20511;-39
2023/10/11 11:20:15;;;;;;;26.58;17.10;;;;;;;25.18;32.17;100668.09;5049460;28;20048;-41
2023/10/11 11:22:46;;;;;;;27.55;18.65;;;;;;;24.45;33.07;100651.44;5049319;28;20489;-40
2023/10/11 11:25:27;;;;;;;26.23;19.83;;;;;;;24.67;32.84;100662.81;5045508;28;20029;-38
2023/10/11 11:28:29;;;;;;;28.30;19.00;;;;;;;24.58;33.15;100667.22;5053053;28;20028;-39
2023/10/11 11:31:50;;;;;;;27.20;17.88;;;;;;;24.72;33.34;100657.38;5045850;28;20579;-40
2023/10/11 11:34:26;;;;;;;21.60;16.40;;;;;;;25.91;31.99;100666.69;5039853;28;20488;-39
2023/10/11 11:37:00;;;;;;;22.27;15.48;;;;;;;26.69;30.39;100658.66;5052273;28;20469;-41
2023/10/11 11:39:27;;;;;;;23.65;15.60;;;;;;;26.99;29.89;100651.22;5052938;28;20055;-39
2023/10/11 11:41:57;;;;;;;22.58;14.77;;;;;;;27.17;30.04;100660.56;5051468;28;20033;-37
2023/10/11 11:44:24;;;;;;;18.80;11.80;;;;;;;26.14;30.52;100664.31;5050237;28;20480;-38
2023/10/11 11:46:53;;;;;;;25.55;15.10;;;;;;;25.07;32.06;100658.34;5051852;28;20013;-39
2023/10/11 11:49:21;;;;;;;27.70;17.23;;;;;;;24.14;33.77;100654.16;5052244;28;20024;-39
2023/10/11 11:51:51;;;;;;;16.17;11.90;;;;;;;24.09;33.86;100648.72;5051381;28;20021;-40
2023/10/11 11:54:21;;;;;;;16.65;10.93;;;;;;;25.18;32.48;100635.44;5048814;28;20102;-39
2023/10/11 11:56:47;;;;;;;14.85;10.15;;;;;;;26.13;31.00;100646.34;5048184;28;20063;-40
2023/10/11 11:59:18;;;;;;;17.48;11.25;;;;;;;26.40;30.44;100643.09;5046222;28;20056;-40
2023/10/11 12:01:58;;;;;;;15.98;10.68;;;;;;;24.90;32.37;100646.97;5048980;28;20024;-41
2023/10/11 12:04:32;;;;;;;11.82;8.30;;;;;;;24.62;32.80;100637.53;5047566;28;20028;-40
2023/10/11 12:07:04;;;;;;;12.30;7.65;;;;;;;24.65;32.53;100650.59;5050658;28;20119;-38
2023/10/11 12:09:34;;;;;;;10.88;7.45;;;;;;;24.27;33.34;100636.47;5048925;28;20060;-40
2023/10/11 12:12:07;;;;;;;9.30;5.40;;;;;;;23.90;33.56;100626.69;5047951;28;20025;-41
2023/10/11 12:14:37;;;;;;;9.50;5.35;;;;;;;24.28;33.25;100619.88;5047665;28;20020;-41
2023/10/11 12:17:09;;;;;;;12.25;7.50;;;;;;;24.04;33.67;100632.41;5052960;28;20033;-41
2023/10/11 12:19:41;;;;;;;10.48;7.25;;;;;;;23.87;34.07;100613.66;5047865;28;20099;-41
2023/10/11 12:22:08;;;;;;;9.82;6.50;;;;;;;23.89;33.72;100614.19;5053005;28;20036;-39
2023/10/11 12:24:35;;;;;;;9.30;6.13;;;;;;;24.12;33.41;100618.25;5052656;28;20330;-41
2023/10/11 12:27:00;;;;;;;12.73;8.98;;;;;;;24.59;33.24;100614.41;5052672;28;20512;-40
2023/10/11 12:29:28;;;;;;;18.90;11.30;;;;;;;25.32;32.08;100619.34;5052089;28;20092;-39